createdAt,value
2018-11-28T00:00:07.948Z,1038.19888173
2018-11-28T00:00:20.351Z,1038.19888173
2018-11-28T00:00:32.742Z,1038.19888173
2018-11-28T00:00:45.107Z,1038.19888173
2018-11-28T00:00:57.468Z,1038.19888173
2018-11-28T00:01:09.837Z,1038.26660949
2018-11-28T00:01:22.193Z,1038.26660949
2018-11-28T00:01:34.566Z,1038.26660949
2018-11-28T00:01:46.936Z,1038.26660949
2018-11-28T00:01:59.323Z,1038.26660949
2018-11-28T00:02:11.674Z,1038.23274561
2018-11-28T00:02:24.098Z,1038.23274561
2018-11-28T00:02:36.460Z,1038.23274561
2018-11-28T00:02:48.955Z,1038.23274561
2018-11-28T00:03:01.352Z,1038.23274561
2018-11-28T00:03:13.871Z,1038.23274561
2018-11-28T00:03:26.413Z,1038.23274561
2018-11-28T00:03:38.779Z,1038.23274561
2018-11-28T00:03:51.138Z,1038.23274561
2018-11-28T00:04:03.491Z,1038.30047337
2018-11-28T00:04:15.925Z,1038.30047337
2018-11-28T00:04:28.276Z,1038.30047337
2018-11-28T00:04:40.633Z,1038.30047337
2018-11-28T00:04:53.021Z,1038.30047337
2018-11-28T00:05:05.395Z,1038.23274561
2018-11-28T00:05:18.066Z,1038.23274561
2018-11-28T00:05:30.443Z,1038.23274561
2018-11-28T00:05:42.811Z,1038.23274561
2018-11-28T00:05:55.174Z,1038.23274561
2018-11-28T00:06:07.526Z,1038.19888173
2018-11-28T00:06:19.878Z,1038.19888173
2018-11-28T00:06:32.232Z,1038.19888173
2018-11-28T00:06:44.589Z,1038.19888173
2018-11-28T00:06:56.949Z,1038.19888173
2018-11-28T00:07:09.305Z,1038.23274561
2018-11-28T00:07:21.656Z,1038.23274561
2018-11-28T00:07:33.997Z,1038.23274561
2018-11-28T00:07:46.353Z,1038.23274561
2018-11-28T00:07:58.730Z,1038.23274561
2018-11-28T00:08:11.183Z,1038.19888173
2018-11-28T00:08:23.561Z,1038.19888173
2018-11-28T00:08:35.979Z,1038.19888173
2018-11-28T00:08:48.328Z,1038.19888173
2018-11-28T00:09:00.687Z,1038.13115397
2018-11-28T00:09:13.052Z,1038.13115397
2018-11-28T00:09:26.146Z,1038.13115397
2018-11-28T00:09:38.558Z,1038.13115397
2018-11-28T00:09:50.923Z,1038.13115397
2018-11-28T00:10:03.280Z,1038.19888173
2018-11-28T00:10:15.722Z,1038.19888173
2018-11-28T00:10:28.087Z,1038.19888173
2018-11-28T00:10:40.526Z,1038.19888173
2018-11-28T00:10:52.879Z,1038.19888173
2018-11-28T00:11:05.289Z,1038.19888173
2018-11-28T00:11:17.648Z,1038.19888173
2018-11-28T00:11:30.062Z,1038.19888173
2018-11-28T00:11:42.566Z,1038.19888173
2018-11-28T00:11:54.945Z,1038.19888173
2018-11-28T00:12:07.312Z,1038.23274561
2018-11-28T00:12:19.680Z,1038.23274561
2018-11-28T00:12:32.083Z,1038.23274561
2018-11-28T00:12:44.461Z,1038.23274561
2018-11-28T00:12:56.877Z,1038.23274561
2018-11-28T00:13:09.286Z,1038.16501785
2018-11-28T00:13:21.709Z,1038.16501785
2018-11-28T00:13:34.070Z,1038.16501785
2018-11-28T00:13:46.424Z,1038.16501785
2018-11-28T00:13:58.784Z,1038.16501785
2018-11-28T00:14:11.170Z,1038.13115397
2018-11-28T00:14:23.528Z,1038.13115397
2018-11-28T00:14:35.873Z,1038.13115397
2018-11-28T00:14:48.219Z,1038.13115397
2018-11-28T00:15:00.588Z,1038.16501785
2018-11-28T00:15:12.942Z,1038.16501785
2018-11-28T00:15:25.300Z,1038.16501785
2018-11-28T00:15:37.669Z,1038.16501785
2018-11-28T00:15:50.034Z,1038.16501785
2018-11-28T00:16:02.384Z,1038.09729009
2018-11-28T00:16:14.737Z,1038.09729009
2018-11-28T00:16:27.102Z,1038.09729009
2018-11-28T00:16:39.873Z,1038.09729009
2018-11-28T00:16:52.335Z,1038.09729009
2018-11-28T00:17:04.681Z,1038.13115397
2018-11-28T00:17:17.053Z,1038.13115397
2018-11-28T00:17:29.418Z,1038.13115397
2018-11-28T00:17:41.780Z,1038.13115397
2018-11-28T00:17:54.140Z,1038.13115397
2018-11-28T00:18:06.503Z,1038.09729009
2018-11-28T00:18:18.855Z,1038.09729009
2018-11-28T00:18:31.205Z,1038.09729009
2018-11-28T00:18:43.652Z,1038.09729009
2018-11-28T00:18:56.028Z,1038.09729009
2018-11-28T00:19:08.418Z,1038.09729009
2018-11-28T00:19:20.796Z,1038.09729009
2018-11-28T00:19:33.167Z,1038.09729009
2018-11-28T00:19:45.549Z,1038.09729009
2018-11-28T00:19:57.924Z,1038.09729009
2018-11-28T00:20:10.292Z,1038.09729009
2018-11-28T00:20:22.665Z,1038.09729009
2018-11-28T00:20:35.255Z,1038.09729009
2018-11-28T00:20:47.619Z,1038.09729009
2018-11-28T00:21:00.007Z,1038.09729009
2018-11-28T00:21:12.356Z,1038.09729009
2018-11-28T00:21:25.699Z,1038.09729009
2018-11-28T00:21:38.059Z,1038.09729009
2018-11-28T00:21:50.414Z,1038.09729009
2018-11-28T00:22:02.759Z,1038.16501785
2018-11-28T00:22:15.219Z,1038.16501785
2018-11-28T00:22:27.871Z,1038.16501785
2018-11-28T00:22:40.242Z,1038.16501785
2018-11-28T00:22:52.626Z,1038.16501785
2018-11-28T00:23:04.976Z,1038.13115397
2018-11-28T00:23:17.683Z,1038.13115397
2018-11-28T00:23:30.035Z,1038.13115397
2018-11-28T00:23:42.411Z,1038.13115397
2018-11-28T00:23:54.785Z,1038.13115397
2018-11-28T00:24:07.206Z,1038.09729009
2018-11-28T00:24:19.616Z,1038.09729009
2018-11-28T00:24:31.995Z,1038.09729009
2018-11-28T00:24:44.423Z,1038.09729009
2018-11-28T00:24:56.836Z,1038.09729009
2018-11-28T00:25:09.209Z,1038.13115397
2018-11-28T00:25:21.599Z,1038.13115397
2018-11-28T00:25:33.965Z,1038.13115397
2018-11-28T00:25:46.314Z,1038.13115397
2018-11-28T00:26:04.401Z,1038.09729009
2018-11-28T00:26:16.753Z,1038.09729009
2018-11-28T00:26:29.110Z,1038.09729009
2018-11-28T00:26:41.457Z,1038.09729009
2018-11-28T00:26:53.836Z,1038.09729009
2018-11-28T00:27:06.235Z,1038.0634262
2018-11-28T00:27:18.613Z,1038.0634262
2018-11-28T00:27:30.983Z,1038.0634262
2018-11-28T00:27:43.379Z,1038.0634262
2018-11-28T00:27:55.745Z,1038.0634262
2018-11-28T00:28:08.130Z,1038.16501785
2018-11-28T00:28:20.563Z,1038.16501785
2018-11-28T00:28:32.948Z,1038.16501785
2018-11-28T00:28:45.316Z,1038.16501785
2018-11-28T00:28:57.682Z,1038.16501785
2018-11-28T00:29:10.297Z,1038.09729009
2018-11-28T00:29:22.655Z,1038.09729009
2018-11-28T00:29:35.001Z,1038.09729009
2018-11-28T00:29:47.369Z,1038.09729009
2018-11-28T00:29:59.736Z,1038.09729009
2018-11-28T00:30:12.150Z,1038.13115397
2018-11-28T00:30:24.578Z,1038.13115397
2018-11-28T00:30:36.936Z,1038.13115397
2018-11-28T00:30:49.347Z,1038.13115397
2018-11-28T00:31:01.701Z,1038.02956232
2018-11-28T00:31:14.051Z,1038.02956232
2018-11-28T00:31:26.399Z,1038.02956232
2018-11-28T00:31:38.758Z,1038.02956232
2018-11-28T00:31:51.121Z,1038.02956232
2018-11-28T00:32:03.475Z,1038.0634262
2018-11-28T00:32:16.911Z,1038.0634262
2018-11-28T00:32:29.256Z,1038.0634262
2018-11-28T00:32:41.703Z,1038.0634262
2018-11-28T00:32:54.109Z,1038.0634262
2018-11-28T00:33:06.512Z,1038.0634262
2018-11-28T00:33:18.950Z,1038.0634262
2018-11-28T00:33:31.329Z,1038.0634262
2018-11-28T00:33:43.975Z,1038.0634262
2018-11-28T00:33:56.326Z,1038.0634262
2018-11-28T00:34:08.697Z,1038.0634262
2018-11-28T00:34:21.055Z,1038.0634262
2018-11-28T00:34:33.434Z,1038.0634262
2018-11-28T00:34:45.845Z,1038.0634262
2018-11-28T00:34:58.244Z,1038.0634262
2018-11-28T00:35:10.589Z,1038.0634262
2018-11-28T00:35:22.963Z,1038.0634262
2018-11-28T00:35:35.338Z,1038.0634262
2018-11-28T00:35:47.710Z,1038.0634262
2018-11-28T00:36:00.068Z,1038.0634262
2018-11-28T00:36:12.417Z,1038.13115397
2018-11-28T00:36:24.766Z,1038.13115397
2018-11-28T00:36:37.115Z,1038.13115397
2018-11-28T00:36:49.467Z,1038.13115397
2018-11-28T00:37:01.830Z,1038.09729009
2018-11-28T00:37:14.184Z,1038.09729009
2018-11-28T00:37:26.560Z,1038.09729009
2018-11-28T00:37:38.927Z,1038.09729009
2018-11-28T00:37:51.291Z,1038.09729009
2018-11-28T00:38:03.651Z,1038.02956232
2018-11-28T00:38:15.991Z,1038.02956232
2018-11-28T00:38:28.448Z,1038.02956232
2018-11-28T00:38:40.805Z,1038.02956232
2018-11-28T00:38:53.163Z,1038.02956232
2018-11-28T00:39:05.529Z,1038.02956232
2018-11-28T00:39:17.877Z,1038.02956232
2018-11-28T00:39:30.287Z,1038.02956232
2018-11-28T00:39:42.657Z,1038.02956232
2018-11-28T00:39:55.024Z,1038.02956232
2018-11-28T00:40:07.574Z,1038.02956232
2018-11-28T00:40:20.008Z,1038.02956232
2018-11-28T00:40:32.372Z,1038.02956232
2018-11-28T00:40:44.725Z,1038.02956232
2018-11-28T00:40:57.080Z,1038.02956232
2018-11-28T00:41:09.700Z,1037.92797068
2018-11-28T00:41:22.044Z,1037.92797068
2018-11-28T00:41:34.401Z,1037.92797068
2018-11-28T00:41:46.922Z,1037.92797068
2018-11-28T00:41:59.377Z,1037.92797068
2018-11-28T00:42:11.729Z,1037.96183456
2018-11-28T00:42:24.085Z,1037.96183456
2018-11-28T00:42:36.422Z,1037.96183456
2018-11-28T00:42:48.776Z,1037.96183456
2018-11-28T00:43:01.138Z,1037.92797068
2018-11-28T00:43:13.488Z,1037.92797068
2018-11-28T00:43:25.842Z,1037.92797068
2018-11-28T00:43:38.174Z,1037.92797068
2018-11-28T00:43:50.528Z,1037.92797068
2018-11-28T00:44:02.904Z,1037.99569844
2018-11-28T00:44:15.248Z,1037.99569844
2018-11-28T00:44:27.761Z,1037.99569844
2018-11-28T00:44:40.139Z,1037.99569844
2018-11-28T00:44:52.495Z,1037.99569844
2018-11-28T00:45:04.853Z,1037.96183456
2018-11-28T00:45:17.222Z,1037.96183456
2018-11-28T00:45:29.610Z,1037.96183456
2018-11-28T00:45:42.137Z,1037.96183456
2018-11-28T00:45:54.630Z,1037.96183456
2018-11-28T00:46:06.980Z,1038.0634262
2018-11-28T00:46:19.675Z,1038.0634262
2018-11-28T00:46:32.047Z,1038.0634262
2018-11-28T00:46:44.416Z,1038.0634262
2018-11-28T00:46:56.828Z,1038.0634262
2018-11-28T00:47:09.212Z,1038.02956232
2018-11-28T00:47:21.569Z,1038.02956232
2018-11-28T00:47:33.917Z,1038.02956232
2018-11-28T00:47:46.271Z,1038.02956232
2018-11-28T00:47:58.677Z,1038.02956232
2018-11-28T00:48:11.030Z,1037.99569844
2018-11-28T00:48:23.385Z,1037.99569844
2018-11-28T00:48:35.736Z,1037.99569844
2018-11-28T00:48:48.087Z,1037.99569844
2018-11-28T00:49:00.468Z,1038.09729009
2018-11-28T00:49:12.829Z,1038.09729009
2018-11-28T00:49:25.182Z,1038.09729009
2018-11-28T00:49:37.543Z,1038.09729009
2018-11-28T00:49:49.903Z,1038.09729009
2018-11-28T00:50:02.696Z,1038.09729009
2018-11-28T00:50:15.073Z,1038.09729009
2018-11-28T00:50:27.452Z,1038.09729009
2018-11-28T00:50:39.814Z,1038.09729009
2018-11-28T00:50:52.258Z,1038.09729009
2018-11-28T00:51:04.607Z,1038.0634262
2018-11-28T00:51:16.958Z,1038.0634262
2018-11-28T00:51:29.309Z,1038.0634262
2018-11-28T00:51:41.679Z,1038.0634262
2018-11-28T00:51:54.168Z,1038.0634262
2018-11-28T00:52:06.524Z,1038.13115397
2018-11-28T00:52:18.866Z,1038.13115397
2018-11-28T00:52:31.237Z,1038.13115397
2018-11-28T00:52:43.591Z,1038.13115397
2018-11-28T00:52:55.970Z,1038.13115397
2018-11-28T00:53:08.326Z,1038.13115397
2018-11-28T00:53:20.694Z,1038.13115397
2018-11-28T00:53:33.047Z,1038.13115397
2018-11-28T00:53:45.401Z,1038.13115397
2018-11-28T00:53:57.766Z,1038.13115397
2018-11-28T00:54:10.099Z,1038.13115397
2018-11-28T00:54:22.441Z,1038.13115397
2018-11-28T00:54:34.867Z,1038.13115397
2018-11-28T00:54:47.230Z,1038.13115397
2018-11-28T00:54:59.587Z,1038.13115397
2018-11-28T00:55:11.983Z,1038.0634262
2018-11-28T00:55:24.457Z,1038.0634262
2018-11-28T00:55:36.816Z,1038.0634262
2018-11-28T00:55:54.184Z,1038.0634262
2018-11-28T00:56:06.598Z,1038.0634262
2018-11-28T00:56:18.958Z,1038.0634262
2018-11-28T00:56:31.321Z,1038.0634262
2018-11-28T00:56:43.804Z,1038.0634262
2018-11-28T00:56:56.237Z,1038.0634262
2018-11-28T00:57:08.591Z,1038.13115397
2018-11-28T00:57:20.956Z,1038.13115397
2018-11-28T00:57:33.305Z,1038.13115397
2018-11-28T00:57:45.671Z,1038.13115397
2018-11-28T00:57:58.071Z,1038.13115397
2018-11-28T00:58:10.417Z,1038.13115397
2018-11-28T00:58:22.765Z,1038.13115397
2018-11-28T00:58:35.304Z,1038.13115397
2018-11-28T00:58:47.679Z,1038.13115397
2018-11-28T00:59:00.023Z,1038.13115397
2018-11-28T00:59:12.641Z,1038.13115397
2018-11-28T00:59:26.416Z,1038.13115397
2018-11-28T00:59:38.779Z,1038.13115397
2018-11-28T00:59:51.156Z,1038.13115397
2018-11-28T01:00:03.543Z,1038.16501785
2018-11-28T01:00:15.922Z,1038.16501785
2018-11-28T01:00:28.417Z,1038.16501785
2018-11-28T01:00:40.788Z,1038.16501785
2018-11-28T01:00:53.154Z,1038.16501785
2018-11-28T01:01:05.542Z,1038.23274561
2018-11-28T01:01:17.912Z,1038.23274561
2018-11-28T01:01:30.282Z,1038.23274561
2018-11-28T01:01:42.759Z,1038.23274561
2018-11-28T01:01:55.139Z,1038.23274561
2018-11-28T01:02:07.513Z,1038.19888173
2018-11-28T01:02:19.894Z,1038.19888173
2018-11-28T01:02:32.247Z,1038.19888173
2018-11-28T01:02:44.598Z,1038.19888173
2018-11-28T01:02:56.979Z,1038.19888173
2018-11-28T01:03:09.345Z,1038.19888173
2018-11-28T01:03:21.839Z,1038.19888173
2018-11-28T01:03:34.339Z,1038.19888173
2018-11-28T01:03:46.701Z,1038.19888173
2018-11-28T01:03:59.079Z,1038.19888173
2018-11-28T01:04:11.518Z,1038.16501785
2018-11-28T01:04:23.868Z,1038.16501785
2018-11-28T01:04:36.228Z,1038.16501785
2018-11-28T01:04:48.619Z,1038.16501785
2018-11-28T01:05:00.982Z,1038.16501785
2018-11-28T01:05:13.476Z,1038.16501785
2018-11-28T01:05:25.858Z,1038.16501785
2018-11-28T01:05:38.227Z,1038.16501785
2018-11-28T01:05:50.587Z,1038.16501785
2018-11-28T01:06:03.007Z,1038.16501785
2018-11-28T01:06:15.373Z,1038.16501785
2018-11-28T01:06:27.723Z,1038.16501785
2018-11-28T01:06:40.079Z,1038.16501785
2018-11-28T01:06:52.434Z,1038.16501785
2018-11-28T01:07:04.845Z,1038.23274561
2018-11-28T01:07:17.212Z,1038.23274561
2018-11-28T01:07:29.562Z,1038.23274561
2018-11-28T01:07:41.916Z,1038.23274561
2018-11-28T01:07:54.332Z,1038.23274561
2018-11-28T01:08:06.715Z,1038.13115397
2018-11-28T01:08:19.107Z,1038.13115397
2018-11-28T01:08:31.439Z,1038.13115397
2018-11-28T01:08:43.789Z,1038.13115397
2018-11-28T01:08:56.194Z,1038.13115397
2018-11-28T01:09:08.552Z,1038.13115397
2018-11-28T01:09:20.918Z,1038.13115397
2018-11-28T01:09:33.274Z,1038.13115397
2018-11-28T01:09:45.607Z,1038.13115397
2018-11-28T01:09:57.943Z,1038.13115397
2018-11-28T01:10:10.312Z,1038.19888173
2018-11-28T01:10:22.691Z,1038.19888173
2018-11-28T01:10:35.030Z,1038.19888173
2018-11-28T01:10:47.373Z,1038.19888173
2018-11-28T01:10:59.735Z,1038.19888173
2018-11-28T01:11:12.088Z,1038.19888173
2018-11-28T01:11:24.464Z,1038.19888173
2018-11-28T01:11:36.932Z,1038.19888173
2018-11-28T01:11:49.331Z,1038.19888173
2018-11-28T01:12:01.720Z,1038.30047337
2018-11-28T01:12:14.072Z,1038.30047337
2018-11-28T01:12:26.416Z,1038.30047337
2018-11-28T01:12:38.823Z,1038.30047337
2018-11-28T01:12:51.178Z,1038.30047337
2018-11-28T01:13:03.638Z,1038.30047337
2018-11-28T01:13:15.983Z,1038.30047337
2018-11-28T01:13:28.366Z,1038.30047337
2018-11-28T01:13:40.730Z,1038.30047337
2018-11-28T01:13:53.236Z,1038.30047337
2018-11-28T01:14:05.580Z,1038.33433726
2018-11-28T01:14:17.920Z,1038.33433726
2018-11-28T01:14:30.276Z,1038.33433726
2018-11-28T01:14:42.634Z,1038.33433726
2018-11-28T01:14:54.966Z,1038.33433726
2018-11-28T01:15:07.332Z,1038.33433726
2018-11-28T01:15:19.689Z,1038.33433726
2018-11-28T01:15:32.052Z,1038.33433726
2018-11-28T01:15:44.395Z,1038.33433726
2018-11-28T01:15:56.760Z,1038.33433726
2018-11-28T01:16:09.126Z,1038.33433726
2018-11-28T01:16:21.483Z,1038.33433726
2018-11-28T01:16:33.842Z,1038.33433726
2018-11-28T01:16:46.386Z,1038.33433726
2018-11-28T01:16:58.762Z,1038.33433726
2018-11-28T01:17:11.102Z,1038.23274561
2018-11-28T01:17:23.444Z,1038.23274561
2018-11-28T01:17:35.863Z,1038.23274561
2018-11-28T01:17:48.203Z,1038.23274561
2018-11-28T01:18:00.607Z,1038.33433726
2018-11-28T01:18:13.048Z,1038.33433726
2018-11-28T01:18:25.478Z,1038.33433726
2018-11-28T01:18:37.849Z,1038.33433726
2018-11-28T01:18:50.209Z,1038.33433726
2018-11-28T01:19:02.569Z,1038.26660949
2018-11-28T01:19:14.920Z,1038.26660949
2018-11-28T01:19:27.271Z,1038.26660949
2018-11-28T01:19:39.630Z,1038.26660949
2018-11-28T01:19:51.981Z,1038.26660949
2018-11-28T01:20:04.361Z,1038.26660949
2018-11-28T01:20:16.725Z,1038.26660949
2018-11-28T01:20:29.272Z,1038.26660949
2018-11-28T01:20:41.649Z,1038.26660949
2018-11-28T01:20:54.010Z,1038.26660949
2018-11-28T01:21:06.363Z,1038.23274561
2018-11-28T01:21:18.733Z,1038.23274561
2018-11-28T01:21:31.085Z,1038.23274561
2018-11-28T01:21:43.430Z,1038.23274561
2018-11-28T01:21:55.779Z,1038.23274561
2018-11-28T01:22:08.112Z,1038.36820114
2018-11-28T01:22:20.601Z,1038.36820114
2018-11-28T01:22:32.956Z,1038.36820114
2018-11-28T01:22:45.330Z,1038.36820114
2018-11-28T01:22:57.729Z,1038.36820114
2018-11-28T01:23:10.187Z,1038.26660949
2018-11-28T01:23:22.535Z,1038.26660949
2018-11-28T01:23:34.909Z,1038.26660949
2018-11-28T01:23:47.290Z,1038.26660949
2018-11-28T01:23:59.653Z,1038.26660949
2018-11-28T01:24:12.004Z,1038.40206502
2018-11-28T01:24:24.367Z,1038.40206502
2018-11-28T01:24:36.715Z,1038.40206502
2018-11-28T01:24:49.187Z,1038.40206502
2018-11-28T01:25:01.578Z,1038.4359289
2018-11-28T01:25:13.951Z,1038.4359289
2018-11-28T01:25:26.347Z,1038.4359289
2018-11-28T01:25:38.771Z,1038.4359289
2018-11-28T01:25:51.108Z,1038.4359289
2018-11-28T01:26:04.210Z,1038.40206502
2018-11-28T01:26:16.588Z,1038.40206502
2018-11-28T01:26:28.922Z,1038.40206502
2018-11-28T01:26:41.282Z,1038.40206502
2018-11-28T01:26:53.631Z,1038.40206502
2018-11-28T01:27:05.979Z,1038.36820114
2018-11-28T01:27:18.500Z,1038.36820114
2018-11-28T01:27:30.864Z,1038.36820114
2018-11-28T01:27:43.216Z,1038.36820114
2018-11-28T01:27:55.598Z,1038.36820114
2018-11-28T01:28:07.958Z,1038.36820114
2018-11-28T01:28:20.328Z,1038.36820114
2018-11-28T01:28:32.686Z,1038.36820114
2018-11-28T01:28:50.948Z,1038.36820114
2018-11-28T01:29:03.294Z,1038.40206502
2018-11-28T01:29:15.651Z,1038.40206502
2018-11-28T01:29:28.028Z,1038.40206502
2018-11-28T01:29:40.537Z,1038.40206502
2018-11-28T01:29:52.898Z,1038.40206502
2018-11-28T01:30:05.247Z,1038.4359289
2018-11-28T01:30:17.671Z,1038.4359289
2018-11-28T01:30:30.048Z,1038.4359289
2018-11-28T01:30:42.550Z,1038.4359289
2018-11-28T01:30:54.922Z,1038.4359289
2018-11-28T01:31:07.286Z,1038.40206502
2018-11-28T01:31:19.663Z,1038.40206502
2018-11-28T01:31:32.019Z,1038.40206502
2018-11-28T01:31:44.365Z,1038.40206502
2018-11-28T01:31:56.712Z,1038.40206502
2018-11-28T01:32:09.064Z,1038.40206502
2018-11-28T01:32:21.417Z,1038.40206502
2018-11-28T01:32:33.762Z,1038.40206502
2018-11-28T01:32:46.174Z,1038.40206502
2018-11-28T01:32:58.618Z,1038.40206502
2018-11-28T01:33:10.980Z,1038.46979278
2018-11-28T01:33:23.432Z,1038.46979278
2018-11-28T01:33:35.915Z,1038.46979278
2018-11-28T01:33:48.263Z,1038.46979278
2018-11-28T01:34:00.613Z,1038.4359289
2018-11-28T01:34:12.993Z,1038.4359289
2018-11-28T01:34:25.370Z,1038.4359289
2018-11-28T01:34:37.722Z,1038.4359289
2018-11-28T01:34:50.078Z,1038.4359289
2018-11-28T01:35:02.483Z,1038.40206502
2018-11-28T01:35:14.843Z,1038.40206502
2018-11-28T01:35:27.224Z,1038.40206502
2018-11-28T01:35:39.588Z,1038.40206502
2018-11-28T01:35:51.960Z,1038.40206502
2018-11-28T01:36:04.291Z,1038.40206502
2018-11-28T01:36:16.656Z,1038.40206502
2018-11-28T01:36:29.016Z,1038.40206502
2018-11-28T01:36:41.377Z,1038.40206502
2018-11-28T01:36:53.752Z,1038.40206502
2018-11-28T01:37:06.126Z,1038.40206502
2018-11-28T01:37:18.490Z,1038.40206502
2018-11-28T01:37:30.844Z,1038.40206502
2018-11-28T01:37:43.263Z,1038.40206502
2018-11-28T01:37:55.690Z,1038.40206502
2018-11-28T01:38:08.077Z,1038.46979278
2018-11-28T01:38:20.487Z,1038.46979278
2018-11-28T01:38:32.850Z,1038.46979278
2018-11-28T01:38:45.196Z,1038.46979278
2018-11-28T01:38:57.562Z,1038.46979278
2018-11-28T01:39:09.926Z,1038.40206502
2018-11-28T01:39:22.526Z,1038.40206502
2018-11-28T01:39:34.884Z,1038.40206502
2018-11-28T01:39:47.247Z,1038.40206502
2018-11-28T01:39:59.586Z,1038.40206502
2018-11-28T01:40:11.955Z,1038.33433726
2018-11-28T01:40:24.382Z,1038.33433726
2018-11-28T01:40:36.736Z,1038.33433726
2018-11-28T01:40:49.111Z,1038.33433726
2018-11-28T01:41:01.599Z,1038.36820114
2018-11-28T01:41:14.194Z,1038.36820114
2018-11-28T01:41:26.585Z,1038.36820114
2018-11-28T01:41:38.953Z,1038.36820114
2018-11-28T01:41:51.563Z,1038.36820114
2018-11-28T01:42:03.906Z,1038.36820114
2018-11-28T01:42:16.267Z,1038.36820114
2018-11-28T01:42:28.625Z,1038.36820114
2018-11-28T01:42:41.001Z,1038.36820114
2018-11-28T01:42:53.385Z,1038.36820114
2018-11-28T01:43:05.740Z,1038.33433726
2018-11-28T01:43:18.514Z,1038.33433726
2018-11-28T01:43:30.871Z,1038.33433726
2018-11-28T01:43:43.236Z,1038.33433726
2018-11-28T01:43:55.590Z,1038.33433726
2018-11-28T01:44:07.960Z,1038.23274561
2018-11-28T01:44:20.481Z,1038.23274561
2018-11-28T01:44:32.821Z,1038.23274561
2018-11-28T01:44:45.193Z,1038.23274561
2018-11-28T01:44:57.570Z,1038.23274561
2018-11-28T01:45:09.917Z,1038.26660949
2018-11-28T01:45:22.376Z,1038.26660949
2018-11-28T01:45:34.724Z,1038.26660949
2018-11-28T01:45:47.147Z,1038.26660949
2018-11-28T01:45:59.519Z,1038.26660949
2018-11-28T01:46:11.916Z,1038.30047337
2018-11-28T01:46:24.263Z,1038.30047337
2018-11-28T01:46:36.612Z,1038.30047337
2018-11-28T01:46:48.973Z,1038.30047337
2018-11-28T01:47:01.330Z,1038.30047337
2018-11-28T01:47:13.673Z,1038.30047337
2018-11-28T01:47:26.045Z,1038.30047337
2018-11-28T01:47:38.407Z,1038.30047337
2018-11-28T01:47:50.761Z,1038.30047337
2018-11-28T01:48:03.121Z,1038.36820114
2018-11-28T01:48:15.667Z,1038.36820114
2018-11-28T01:48:28.025Z,1038.36820114
2018-11-28T01:48:40.407Z,1038.36820114
2018-11-28T01:48:52.772Z,1038.36820114
2018-11-28T01:49:05.150Z,1038.33433726
2018-11-28T01:49:17.519Z,1038.33433726
2018-11-28T01:49:29.889Z,1038.33433726
2018-11-28T01:49:42.254Z,1038.33433726
2018-11-28T01:49:54.812Z,1038.33433726
2018-11-28T01:50:08.520Z,1038.30047337
2018-11-28T01:50:20.883Z,1038.30047337
2018-11-28T01:50:33.245Z,1038.30047337
2018-11-28T01:50:45.596Z,1038.30047337
2018-11-28T01:50:58.044Z,1038.30047337
2018-11-28T01:51:10.399Z,1038.40206502
2018-11-28T01:51:22.767Z,1038.40206502
2018-11-28T01:51:35.150Z,1038.40206502
2018-11-28T01:51:47.520Z,1038.40206502
2018-11-28T01:52:00.142Z,1038.40206502
2018-11-28T01:52:12.505Z,1038.33433726
2018-11-28T01:52:24.872Z,1038.33433726
2018-11-28T01:52:37.242Z,1038.33433726
2018-11-28T01:52:49.640Z,1038.33433726
2018-11-28T01:53:01.992Z,1038.36820114
2018-11-28T01:53:14.395Z,1038.36820114
2018-11-28T01:53:26.768Z,1038.36820114
2018-11-28T01:53:39.145Z,1038.36820114
2018-11-28T01:53:51.511Z,1038.36820114
2018-11-28T01:54:03.872Z,1038.30047337
2018-11-28T01:54:16.246Z,1038.30047337
2018-11-28T01:54:28.600Z,1038.30047337
2018-11-28T01:54:40.959Z,1038.30047337
2018-11-28T01:54:53.316Z,1038.30047337
2018-11-28T01:55:05.662Z,1038.33433726
2018-11-28T01:55:18.006Z,1038.33433726
2018-11-28T01:55:30.507Z,1038.33433726
2018-11-28T01:55:42.860Z,1038.33433726
2018-11-28T01:55:55.226Z,1038.33433726
2018-11-28T01:56:07.584Z,1038.30047337
2018-11-28T01:56:19.949Z,1038.30047337
2018-11-28T01:56:32.299Z,1038.30047337
2018-11-28T01:56:44.842Z,1038.30047337
2018-11-28T01:56:57.268Z,1038.30047337
2018-11-28T01:57:09.615Z,1038.23274561
2018-11-28T01:57:21.987Z,1038.23274561
2018-11-28T01:57:34.347Z,1038.23274561
2018-11-28T01:57:46.715Z,1038.23274561
2018-11-28T01:57:59.089Z,1038.23274561
2018-11-28T01:58:11.436Z,1038.30047337
2018-11-28T01:58:23.785Z,1038.30047337
2018-11-28T01:58:36.551Z,1038.30047337
2018-11-28T01:58:48.912Z,1038.30047337
2018-11-28T01:59:01.261Z,1038.26660949
2018-11-28T01:59:13.775Z,1038.26660949
2018-11-28T01:59:26.127Z,1038.26660949
2018-11-28T01:59:38.484Z,1038.26660949
2018-11-28T01:59:50.852Z,1038.26660949
2018-11-28T02:00:03.260Z,1038.33433726
2018-11-28T02:00:15.678Z,1038.33433726
2018-11-28T02:00:28.109Z,1038.33433726
2018-11-28T02:00:40.488Z,1038.33433726
2018-11-28T02:00:52.882Z,1038.33433726
2018-11-28T02:01:05.248Z,1038.30047337
2018-11-28T02:01:17.608Z,1038.30047337
2018-11-28T02:01:30.018Z,1038.30047337
2018-11-28T02:01:42.374Z,1038.30047337
2018-11-28T02:01:54.726Z,1038.30047337
2018-11-28T02:02:07.072Z,1038.30047337
2018-11-28T02:02:19.431Z,1038.30047337
2018-11-28T02:02:31.806Z,1038.30047337
2018-11-28T02:02:44.184Z,1038.30047337
2018-11-28T02:02:56.573Z,1038.30047337
2018-11-28T02:03:08.939Z,1038.30047337
2018-11-28T02:03:21.287Z,1038.30047337
2018-11-28T02:03:34.011Z,1038.30047337
2018-11-28T02:03:46.383Z,1038.30047337
2018-11-28T02:03:58.977Z,1038.30047337
2018-11-28T02:04:11.469Z,1038.33433726
2018-11-28T02:04:23.840Z,1038.33433726
2018-11-28T02:04:36.243Z,1038.33433726
2018-11-28T02:04:48.600Z,1038.33433726
2018-11-28T02:05:00.981Z,1038.30047337
2018-11-28T02:05:13.578Z,1038.30047337
2018-11-28T02:05:26.000Z,1038.30047337
2018-11-28T02:05:38.452Z,1038.30047337
2018-11-28T02:05:50.811Z,1038.30047337
2018-11-28T02:06:03.199Z,1038.30047337
2018-11-28T02:06:15.670Z,1038.30047337
2018-11-28T02:06:28.037Z,1038.30047337
2018-11-28T02:06:40.397Z,1038.30047337
2018-11-28T02:06:52.767Z,1038.30047337
2018-11-28T02:07:05.110Z,1038.26660949
2018-11-28T02:07:17.527Z,1038.26660949
2018-11-28T02:07:29.875Z,1038.26660949